sensor_id;sensor_type;location;lat;lon;timestamp;P1;durP1;ratioP1;P2;durP2;ratioP2
21825;SDS011;11075;47.944;11.776;2022-09-17T00:01:04;5.57;;;3.47;;
21825;SDS011;11075;47.944;11.776;2022-09-17T00:03:31;4.90;;;3.70;;
21825;SDS011;11075;47.944;11.776;2022-09-17T00:06:05;3.90;;;3.43;;
21825;SDS011;11075;47.944;11.776;2022-09-17T00:08:34;3.87;;;3.40;;
21825;SDS011;11075;47.944;11.776;2022-09-17T00:11:09;5.40;;;3.27;;
21825;SDS011;11075;47.944;11.776;2022-09-17T00:13:39;4.57;;;3.57;;
21825;SDS011;11075;47.944;11.776;2022-09-17T00:16:08;5.53;;;3.47;;
21825;SDS011;11075;47.944;11.776;2022-09-17T00:18:36;6.10;;;3.20;;
21825;SDS011;11075;47.944;11.776;2022-09-17T00:21:06;5.37;;;3.23;;
21825;SDS011;11075;47.944;11.776;2022-09-17T00:23:41;5.30;;;3.60;;
21825;SDS011;11075;47.944;11.776;2022-09-17T00:26:08;4.90;;;3.47;;
21825;SDS011;11075;47.944;11.776;2022-09-17T00:28:35;4.20;;;3.10;;
21825;SDS011;11075;47.944;11.776;2022-09-17T00:31:05;6.90;;;3.20;;
21825;SDS011;11075;47.944;11.776;2022-09-17T00:33:35;3.03;;;2.50;;
21825;SDS011;11075;47.944;11.776;2022-09-17T00:36:03;5.07;;;3.10;;
21825;SDS011;11075;47.944;11.776;2022-09-17T00:38:31;3.73;;;2.90;;
21825;SDS011;11075;47.944;11.776;2022-09-17T00:40:58;5.60;;;2.50;;
21825;SDS011;11075;47.944;11.776;2022-09-17T00:43:42;4.10;;;2.70;;
21825;SDS011;11075;47.944;11.776;2022-09-17T00:49:00;5.00;;;2.63;;
21825;SDS011;11075;47.944;11.776;2022-09-17T00:51:35;4.63;;;2.60;;
21825;SDS011;11075;47.944;11.776;2022-09-17T00:54:05;3.37;;;2.80;;
21825;SDS011;11075;47.944;11.776;2022-09-17T00:56:35;3.73;;;2.53;;
21825;SDS011;11075;47.944;11.776;2022-09-17T00:59:06;6.73;;;2.97;;
21825;SDS011;11075;47.944;11.776;2022-09-17T01:01:33;4.17;;;2.77;;
21825;SDS011;11075;47.944;11.776;2022-09-17T01:04:01;4.43;;;2.83;;
21825;SDS011;11075;47.944;11.776;2022-09-17T01:06:33;4.83;;;2.90;;
21825;SDS011;11075;47.944;11.776;2022-09-17T01:17:48;5.70;;;3.00;;
21825;SDS011;11075;47.944;11.776;2022-09-17T01:20:45;3.97;;;2.97;;
21825;SDS011;11075;47.944;11.776;2022-09-17T01:28:51;3.63;;;3.10;;
21825;SDS011;11075;47.944;11.776;2022-09-17T01:34:40;5.13;;;3.50;;
21825;SDS011;11075;47.944;11.776;2022-09-17T01:37:22;6.97;;;3.07;;
21825;SDS011;11075;47.944;11.776;2022-09-17T01:42:48;4.70;;;3.00;;
21825;SDS011;11075;47.944;11.776;2022-09-17T01:50:55;3.07;;;2.77;;
21825;SDS011;11075;47.944;11.776;2022-09-17T01:53:27;3.03;;;2.67;;
21825;SDS011;11075;47.944;11.776;2022-09-17T01:56:14;4.93;;;2.83;;
21825;SDS011;11075;47.944;11.776;2022-09-17T01:58:47;5.03;;;2.77;;
21825;SDS011;11075;47.944;11.776;2022-09-17T02:01:19;7.37;;;2.90;;
21825;SDS011;11075;47.944;11.776;2022-09-17T02:03:53;4.83;;;2.70;;
21825;SDS011;11075;47.944;11.776;2022-09-17T02:06:28;4.23;;;2.73;;
21825;SDS011;11075;47.944;11.776;2022-09-17T02:09:20;4.70;;;2.87;;
21825;SDS011;11075;47.944;11.776;2022-09-17T02:11:50;6.00;;;2.73;;
21825;SDS011;11075;47.944;11.776;2022-09-17T02:14:25;4.17;;;2.77;;
21825;SDS011;11075;47.944;11.776;2022-09-17T02:16:59;3.33;;;3.03;;
21825;SDS011;11075;47.944;11.776;2022-09-17T02:19:33;4.20;;;3.43;;
21825;SDS011;11075;47.944;11.776;2022-09-17T02:22:20;3.77;;;3.07;;
21825;SDS011;11075;47.944;11.776;2022-09-17T02:30:01;4.53;;;3.03;;
21825;SDS011;11075;47.944;11.776;2022-09-17T02:32:28;5.77;;;3.50;;
21825;SDS011;11075;47.944;11.776;2022-09-17T02:34:55;6.17;;;3.60;;
21825;SDS011;11075;47.944;11.776;2022-09-17T02:37:22;8.03;;;3.93;;
21825;SDS011;11075;47.944;11.776;2022-09-17T02:39:49;9.03;;;3.47;;
21825;SDS011;11075;47.944;11.776;2022-09-17T02:51:32;7.33;;;3.67;;
21825;SDS011;11075;47.944;11.776;2022-09-17T02:54:19;5.00;;;3.33;;
21825;SDS011;11075;47.944;11.776;2022-09-17T03:00:25;4.33;;;3.40;;
21825;SDS011;11075;47.944;11.776;2022-09-17T03:02:41;4.37;;;3.70;;
21825;SDS011;11075;47.944;11.776;2022-09-17T03:05:13;4.20;;;3.40;;
21825;SDS011;11075;47.944;11.776;2022-09-17T03:07:42;6.17;;;3.30;;
21825;SDS011;11075;47.944;11.776;2022-09-17T03:10:09;8.03;;;3.30;;
21825;SDS011;11075;47.944;11.776;2022-09-17T03:12:37;5.13;;;3.73;;
21825;SDS011;11075;47.944;11.776;2022-09-17T03:15:04;5.20;;;3.10;;
21825;SDS011;11075;47.944;11.776;2022-09-17T03:17:31;9.17;;;4.10;;
21825;SDS011;11075;47.944;11.776;2022-09-17T03:19:57;6.40;;;3.40;;
21825;SDS011;11075;47.944;11.776;2022-09-17T03:22:24;3.80;;;3.27;;
21825;SDS011;11075;47.944;11.776;2022-09-17T03:24:51;6.87;;;3.37;;
21825;SDS011;11075;47.944;11.776;2022-09-17T03:27:18;7.13;;;3.60;;
21825;SDS011;11075;47.944;11.776;2022-09-17T03:29:45;5.20;;;3.90;;
21825;SDS011;11075;47.944;11.776;2022-09-17T03:32:11;4.60;;;3.57;;
21825;SDS011;11075;47.944;11.776;2022-09-17T03:34:38;8.37;;;4.10;;
21825;SDS011;11075;47.944;11.776;2022-09-17T03:37:05;5.27;;;3.90;;
21825;SDS011;11075;47.944;11.776;2022-09-17T03:39:32;7.07;;;3.90;;
21825;SDS011;11075;47.944;11.776;2022-09-17T03:41:59;9.27;;;4.20;;
21825;SDS011;11075;47.944;11.776;2022-09-17T03:44:25;5.83;;;4.17;;
21825;SDS011;11075;47.944;11.776;2022-09-17T03:46:52;6.17;;;4.23;;
21825;SDS011;11075;47.944;11.776;2022-09-17T03:49:19;5.17;;;4.10;;
21825;SDS011;11075;47.944;11.776;2022-09-17T03:51:46;11.03;;;4.37;;
21825;SDS011;11075;47.944;11.776;2022-09-17T03:54:12;7.77;;;4.70;;
21825;SDS011;11075;47.944;11.776;2022-09-17T03:56:39;4.80;;;3.93;;
21825;SDS011;11075;47.944;11.776;2022-09-17T03:59:06;6.93;;;4.20;;
21825;SDS011;11075;47.944;11.776;2022-09-17T04:01:33;3.77;;;3.10;;
21825;SDS011;11075;47.944;11.776;2022-09-17T04:04:00;7.07;;;3.87;;
21825;SDS011;11075;47.944;11.776;2022-09-17T04:06:27;6.37;;;3.03;;
21825;SDS011;11075;47.944;11.776;2022-09-17T04:08:54;5.30;;;3.30;;
21825;SDS011;11075;47.944;11.776;2022-09-17T04:11:22;5.33;;;3.40;;
21825;SDS011;11075;47.944;11.776;2022-09-17T04:13:49;9.73;;;3.67;;
21825;SDS011;11075;47.944;11.776;2022-09-17T04:16:16;5.93;;;3.07;;
21825;SDS011;11075;47.944;11.776;2022-09-17T04:18:43;7.57;;;3.17;;
21825;SDS011;11075;47.944;11.776;2022-09-17T04:21:09;5.70;;;3.30;;
21825;SDS011;11075;47.944;11.776;2022-09-17T04:23:36;8.57;;;3.50;;
21825;SDS011;11075;47.944;11.776;2022-09-17T04:26:03;4.17;;;3.30;;
21825;SDS011;11075;47.944;11.776;2022-09-17T04:28:30;6.07;;;3.33;;
21825;SDS011;11075;47.944;11.776;2022-09-17T04:30:57;6.80;;;3.80;;
21825;SDS011;11075;47.944;11.776;2022-09-17T04:33:24;9.40;;;3.63;;
21825;SDS011;11075;47.944;11.776;2022-09-17T04:35:51;6.30;;;3.50;;
21825;SDS011;11075;47.944;11.776;2022-09-17T04:38:17;7.50;;;3.57;;
21825;SDS011;11075;47.944;11.776;2022-09-17T04:40:46;7.87;;;3.73;;
21825;SDS011;11075;47.944;11.776;2022-09-17T04:43:13;5.33;;;3.17;;
21825;SDS011;11075;47.944;11.776;2022-09-17T04:45:40;4.83;;;3.50;;
21825;SDS011;11075;47.944;11.776;2022-09-17T04:48:06;9.73;;;3.70;;
21825;SDS011;11075;47.944;11.776;2022-09-17T04:50:33;6.23;;;3.90;;
21825;SDS011;11075;47.944;11.776;2022-09-17T04:53:00;6.27;;;4.17;;
21825;SDS011;11075;47.944;11.776;2022-09-17T04:55:27;6.97;;;3.57;;
21825;SDS011;11075;47.944;11.776;2022-09-17T04:57:54;5.50;;;3.73;;
21825;SDS011;11075;47.944;11.776;2022-09-17T05:00:21;3.93;;;3.50;;
21825;SDS011;11075;47.944;11.776;2022-09-17T05:02:50;5.87;;;3.80;;
21825;SDS011;11075;47.944;11.776;2022-09-17T05:05:18;7.40;;;4.17;;
21825;SDS011;11075;47.944;11.776;2022-09-17T05:07:45;5.50;;;4.30;;
21825;SDS011;11075;47.944;11.776;2022-09-17T05:10:13;6.00;;;4.20;;
21825;SDS011;11075;47.944;11.776;2022-09-17T05:12:46;6.50;;;4.57;;
21825;SDS011;11075;47.944;11.776;2022-09-17T05:15:14;6.40;;;3.90;;
21825;SDS011;11075;47.944;11.776;2022-09-17T05:17:42;7.77;;;4.07;;
21825;SDS011;11075;47.944;11.776;2022-09-17T05:20:09;5.23;;;3.90;;
21825;SDS011;11075;47.944;11.776;2022-09-17T05:22:46;6.63;;;4.00;;
21825;SDS011;11075;47.944;11.776;2022-09-17T05:25:15;5.67;;;4.20;;
21825;SDS011;11075;47.944;11.776;2022-09-17T05:27:43;6.10;;;3.97;;
21825;SDS011;11075;47.944;11.776;2022-09-17T05:30:11;4.90;;;3.77;;
21825;SDS011;11075;47.944;11.776;2022-09-17T05:32:38;7.50;;;4.53;;
21825;SDS011;11075;47.944;11.776;2022-09-17T05:35:06;6.60;;;3.43;;
21825;SDS011;11075;47.944;11.776;2022-09-17T05:37:34;5.00;;;3.47;;
21825;SDS011;11075;47.944;11.776;2022-09-17T05:40:02;6.30;;;3.47;;
21825;SDS011;11075;47.944;11.776;2022-09-17T05:42:32;11.53;;;4.37;;
21825;SDS011;11075;47.944;11.776;2022-09-17T05:44:59;4.00;;;3.17;;
21825;SDS011;11075;47.944;11.776;2022-09-17T05:47:26;6.00;;;3.73;;
21825;SDS011;11075;47.944;11.776;2022-09-17T05:49:52;3.13;;;2.70;;
21825;SDS011;11075;47.944;11.776;2022-09-17T05:52:19;10.13;;;3.50;;
21825;SDS011;11075;47.944;11.776;2022-09-17T05:54:46;5.57;;;3.00;;
21825;SDS011;11075;47.944;11.776;2022-09-17T05:57:13;3.33;;;3.00;;
21825;SDS011;11075;47.944;11.776;2022-09-17T05:59:42;5.30;;;3.13;;
21825;SDS011;11075;47.944;11.776;2022-09-17T06:02:11;6.43;;;3.17;;
21825;SDS011;11075;47.944;11.776;2022-09-17T06:04:39;4.93;;;3.10;;
21825;SDS011;11075;47.944;11.776;2022-09-17T06:07:06;4.00;;;3.20;;
21825;SDS011;11075;47.944;11.776;2022-09-17T06:09:35;3.43;;;2.70;;
21825;SDS011;11075;47.944;11.776;2022-09-17T06:12:03;7.90;;;3.47;;
21825;SDS011;11075;47.944;11.776;2022-09-17T06:14:31;3.43;;;3.03;;
21825;SDS011;11075;47.944;11.776;2022-09-17T06:16:58;9.17;;;3.67;;
21825;SDS011;11075;47.944;11.776;2022-09-17T06:19:26;6.60;;;3.27;;
21825;SDS011;11075;47.944;11.776;2022-09-17T06:21:54;4.57;;;2.63;;
21825;SDS011;11075;47.944;11.776;2022-09-17T06:24:21;4.07;;;2.90;;
21825;SDS011;11075;47.944;11.776;2022-09-17T06:26:48;4.33;;;3.23;;
21825;SDS011;11075;47.944;11.776;2022-09-17T06:29:14;7.97;;;3.17;;
21825;SDS011;11075;47.944;11.776;2022-09-17T06:31:41;5.10;;;3.50;;
21825;SDS011;11075;47.944;11.776;2022-09-17T06:34:11;10.50;;;2.83;;
21825;SDS011;11075;47.944;11.776;2022-09-17T06:36:38;6.60;;;3.53;;
21825;SDS011;11075;47.944;11.776;2022-09-17T06:39:05;4.97;;;2.77;;
21825;SDS011;11075;47.944;11.776;2022-09-17T06:41:32;6.27;;;2.70;;
21825;SDS011;11075;47.944;11.776;2022-09-17T06:44:02;4.03;;;3.00;;
21825;SDS011;11075;47.944;11.776;2022-09-17T06:46:29;3.73;;;2.80;;
21825;SDS011;11075;47.944;11.776;2022-09-17T06:48:56;3.07;;;2.40;;
21825;SDS011;11075;47.944;11.776;2022-09-17T06:51:23;3.53;;;2.83;;
21825;SDS011;11075;47.944;11.776;2022-09-17T06:53:49;4.30;;;3.10;;
21825;SDS011;11075;47.944;11.776;2022-09-17T06:56:16;5.53;;;2.97;;
21825;SDS011;11075;47.944;11.776;2022-09-17T06:58:43;4.07;;;2.70;;
21825;SDS011;11075;47.944;11.776;2022-09-17T07:01:10;6.50;;;2.97;;
21825;SDS011;11075;47.944;11.776;2022-09-17T07:03:38;4.73;;;2.90;;
21825;SDS011;11075;47.944;11.776;2022-09-17T07:06:09;9.00;;;3.63;;
21825;SDS011;11075;47.944;11.776;2022-09-17T07:08:37;3.80;;;2.60;;
21825;SDS011;11075;47.944;11.776;2022-09-17T07:11:05;2.17;;;1.80;;
21825;SDS011;11075;47.944;11.776;2022-09-17T07:13:32;1.67;;;1.57;;
21825;SDS011;11075;47.944;11.776;2022-09-17T07:16:00;2.73;;;1.23;;
21825;SDS011;11075;47.944;11.776;2022-09-17T07:18:29;4.47;;;1.20;;
21825;SDS011;11075;47.944;11.776;2022-09-17T07:20:59;1.93;;;1.40;;
21825;SDS011;11075;47.944;11.776;2022-09-17T07:23:28;4.63;;;1.17;;
21825;SDS011;11075;47.944;11.776;2022-09-17T07:25:58;2.10;;;1.00;;
21825;SDS011;11075;47.944;11.776;2022-09-17T07:28:26;2.23;;;0.80;;
21825;SDS011;11075;47.944;11.776;2022-09-17T07:30:54;2.17;;;1.20;;
21825;SDS011;11075;47.944;11.776;2022-09-17T07:33:25;1.90;;;0.90;;
21825;SDS011;11075;47.944;11.776;2022-09-17T07:38:20;3.23;;;1.00;;
21825;SDS011;11075;47.944;11.776;2022-09-17T07:43:21;2.47;;;0.90;;
21825;SDS011;11075;47.944;11.776;2022-09-17T07:45:47;1.00;;;0.80;;
21825;SDS011;11075;47.944;11.776;2022-09-17T07:48:14;0.60;;;0.60;;
21825;SDS011;11075;47.944;11.776;2022-09-17T07:50:41;2.17;;;0.67;;
21825;SDS011;11075;47.944;11.776;2022-09-17T07:53:08;1.27;;;0.80;;
21825;SDS011;11075;47.944;11.776;2022-09-17T07:55:34;5.27;;;0.97;;
21825;SDS011;11075;47.944;11.776;2022-09-17T07:58:01;1.70;;;0.77;;
21825;SDS011;11075;47.944;11.776;2022-09-17T08:00:28;1.43;;;1.00;;
21825;SDS011;11075;47.944;11.776;2022-09-17T08:02:55;3.47;;;1.07;;
21825;SDS011;11075;47.944;11.776;2022-09-17T08:05:23;1.67;;;0.77;;
21825;SDS011;11075;47.944;11.776;2022-09-17T08:07:50;4.93;;;0.87;;
21825;SDS011;11075;47.944;11.776;2022-09-17T08:10:17;2.57;;;1.10;;
21825;SDS011;11075;47.944;11.776;2022-09-17T08:12:48;2.07;;;1.10;;
21825;SDS011;11075;47.944;11.776;2022-09-17T08:15:16;3.03;;;0.80;;
21825;SDS011;11075;47.944;11.776;2022-09-17T08:17:44;6.97;;;1.50;;
21825;SDS011;11075;47.944;11.776;2022-09-17T08:20:12;3.43;;;1.20;;
21825;SDS011;11075;47.944;11.776;2022-09-17T08:22:41;4.30;;;1.17;;
21825;SDS011;11075;47.944;11.776;2022-09-17T08:25:13;2.65;;;1.20;;
21825;SDS011;11075;47.944;11.776;2022-09-17T08:27:40;4.60;;;1.20;;
21825;SDS011;11075;47.944;11.776;2022-09-17T08:30:07;5.57;;;1.30;;
21825;SDS011;11075;47.944;11.776;2022-09-17T08:32:34;3.35;;;1.10;;
21825;SDS011;11075;47.944;11.776;2022-09-17T08:35:01;2.50;;;0.90;;
21825;SDS011;11075;47.944;11.776;2022-09-17T08:37:28;4.70;;;1.10;;
21825;SDS011;11075;47.944;11.776;2022-09-17T08:39:56;2.63;;;1.27;;
21825;SDS011;11075;47.944;11.776;2022-09-17T08:42:29;5.60;;;1.43;;
21825;SDS011;11075;47.944;11.776;2022-09-17T08:45:03;1.97;;;0.90;;
21825;SDS011;11075;47.944;11.776;2022-09-17T08:47:36;3.60;;;1.17;;
21825;SDS011;11075;47.944;11.776;2022-09-17T08:50:06;2.78;;;1.38;;
21825;SDS011;11075;47.944;11.776;2022-09-17T09:07:11;3.60;;;0.90;;
21825;SDS011;11075;47.944;11.776;2022-09-17T09:09:28;4.65;;;1.02;;
21825;SDS011;11075;47.944;11.776;2022-09-17T09:12:09;2.13;;;0.93;;
21825;SDS011;11075;47.944;11.776;2022-09-17T09:17:24;5.75;;;1.33;;
21825;SDS011;11075;47.944;11.776;2022-09-17T09:19:57;2.80;;;0.93;;
21825;SDS011;11075;47.944;11.776;2022-09-17T09:27:27;4.97;;;1.13;;
21825;SDS011;11075;47.944;11.776;2022-09-17T09:35:31;3.03;;;1.10;;
21825;SDS011;11075;47.944;11.776;2022-09-17T09:38:19;1.53;;;0.90;;
21825;SDS011;11075;47.944;11.776;2022-09-17T09:41:10;4.87;;;1.20;;
21825;SDS011;11075;47.944;11.776;2022-09-17T09:43:44;2.10;;;0.90;;
21825;SDS011;11075;47.944;11.776;2022-09-17T09:49:19;3.83;;;1.10;;
21825;SDS011;11075;47.944;11.776;2022-09-17T09:54:53;6.47;;;1.30;;
21825;SDS011;11075;47.944;11.776;2022-09-17T09:57:40;1.87;;;1.00;;
21825;SDS011;11075;47.944;11.776;2022-09-17T10:00:25;2.83;;;1.20;;
21825;SDS011;11075;47.944;11.776;2022-09-17T10:05:32;3.77;;;1.00;;
21825;SDS011;11075;47.944;11.776;2022-09-17T10:07:59;4.40;;;1.00;;
21825;SDS011;11075;47.944;11.776;2022-09-17T10:10:26;2.20;;;1.00;;
21825;SDS011;11075;47.944;11.776;2022-09-17T10:13:05;2.63;;;1.07;;
21825;SDS011;11075;47.944;11.776;2022-09-17T10:15:33;3.70;;;1.23;;
21825;SDS011;11075;47.944;11.776;2022-09-17T10:20:48;5.97;;;1.40;;
21825;SDS011;11075;47.944;11.776;2022-09-17T10:23:16;4.27;;;1.30;;
21825;SDS011;11075;47.944;11.776;2022-09-17T10:25:43;1.30;;;1.00;;
21825;SDS011;11075;47.944;11.776;2022-09-17T10:31:06;8.23;;;1.73;;
21825;SDS011;11075;47.944;11.776;2022-09-17T10:33:57;4.30;;;1.23;;
21825;SDS011;11075;47.944;11.776;2022-09-17T10:42:03;6.65;;;1.30;;
21825;SDS011;11075;47.944;11.776;2022-09-17T10:44:34;5.80;;;0.90;;
21825;SDS011;11075;47.944;11.776;2022-09-17T10:52:29;6.30;;;1.37;;
21825;SDS011;11075;47.944;11.776;2022-09-17T11:03:28;4.43;;;1.00;;
21825;SDS011;11075;47.944;11.776;2022-09-17T11:22:54;8.73;;;1.30;;
21825;SDS011;11075;47.944;11.776;2022-09-17T11:25:46;3.87;;;1.40;;
21825;SDS011;11075;47.944;11.776;2022-09-17T11:33:27;4.53;;;1.00;;
21825;SDS011;11075;47.944;11.776;2022-09-17T11:36:10;3.53;;;1.10;;
21825;SDS011;11075;47.944;11.776;2022-09-17T11:38:39;2.87;;;1.50;;
21825;SDS011;11075;47.944;11.776;2022-09-17T11:41:19;7.37;;;1.20;;
21825;SDS011;11075;47.944;11.776;2022-09-17T11:44:02;2.37;;;1.33;;
21825;SDS011;11075;47.944;11.776;2022-09-17T11:47:08;7.97;;;1.43;;
21825;SDS011;11075;47.944;11.776;2022-09-17T11:54:56;5.90;;;1.43;;
21825;SDS011;11075;47.944;11.776;2022-09-17T11:57:48;4.63;;;0.83;;
21825;SDS011;11075;47.944;11.776;2022-09-17T12:00:19;2.83;;;1.13;;
21825;SDS011;11075;47.944;11.776;2022-09-17T12:05:43;3.50;;;0.60;;
21825;SDS011;11075;47.944;11.776;2022-09-17T12:08:22;2.07;;;0.93;;
21825;SDS011;11075;47.944;11.776;2022-09-17T12:10:57;1.93;;;0.70;;
21825;SDS011;11075;47.944;11.776;2022-09-17T12:16:14;1.73;;;0.60;;
21825;SDS011;11075;47.944;11.776;2022-09-17T12:21:28;0.60;;;0.60;;
21825;SDS011;11075;47.944;11.776;2022-09-17T12:29:46;2.03;;;0.70;;
21825;SDS011;11075;47.944;11.776;2022-09-17T12:35:13;4.47;;;0.57;;
21825;SDS011;11075;47.944;11.776;2022-09-17T12:37:48;2.00;;;0.70;;
21825;SDS011;11075;47.944;11.776;2022-09-17T12:43:16;1.30;;;0.60;;
21825;SDS011;11075;47.944;11.776;2022-09-17T12:46:05;2.93;;;0.80;;
21825;SDS011;11075;47.944;11.776;2022-09-17T12:55:24;5.97;;;0.90;;
21825;SDS011;11075;47.944;11.776;2022-09-17T13:00:09;2.50;;;0.87;;
21825;SDS011;11075;47.944;11.776;2022-09-17T13:14:19;2.77;;;1.17;;
21825;SDS011;11075;47.944;11.776;2022-09-17T13:17:00;4.43;;;1.17;;
21825;SDS011;11075;47.944;11.776;2022-09-17T13:19:47;1.93;;;0.70;;
21825;SDS011;11075;47.944;11.776;2022-09-17T13:22:22;1.30;;;0.90;;
21825;SDS011;11075;47.944;11.776;2022-09-17T13:25:00;5.13;;;1.13;;
21825;SDS011;11075;47.944;11.776;2022-09-17T13:27:32;0.83;;;0.77;;
21825;SDS011;11075;47.944;11.776;2022-09-17T13:30:24;5.23;;;1.00;;
21825;SDS011;11075;47.944;11.776;2022-09-17T13:32:50;2.60;;;0.70;;
21825;SDS011;11075;47.944;11.776;2022-09-17T13:40:25;2.87;;;0.93;;
21825;SDS011;11075;47.944;11.776;2022-09-17T13:42:58;3.17;;;1.00;;
21825;SDS011;11075;47.944;11.776;2022-09-17T13:48:44;1.13;;;0.70;;
21825;SDS011;11075;47.944;11.776;2022-09-17T13:54:00;1.17;;;0.70;;
21825;SDS011;11075;47.944;11.776;2022-09-17T13:57:01;2.23;;;1.00;;
21825;SDS011;11075;47.944;11.776;2022-09-17T13:59:39;2.38;;;0.90;;
21825;SDS011;11075;47.944;11.776;2022-09-17T14:02:32;2.13;;;0.55;;
21825;SDS011;11075;47.944;11.776;2022-09-17T14:05:20;0.47;;;0.45;;
21825;SDS011;11075;47.944;11.776;2022-09-17T14:07:50;5.05;;;0.90;;
21825;SDS011;11075;47.944;11.776;2022-09-17T14:10:35;1.60;;;0.80;;
21825;SDS011;11075;47.944;11.776;2022-09-17T14:19:04;3.60;;;1.07;;
21825;SDS011;11075;47.944;11.776;2022-09-17T14:22:29;2.07;;;0.70;;
21825;SDS011;11075;47.944;11.776;2022-09-17T14:35:40;2.35;;;0.98;;
21825;SDS011;11075;47.944;11.776;2022-09-17T14:38:13;3.00;;;0.80;;
21825;SDS011;11075;47.944;11.776;2022-09-17T14:40:57;1.90;;;0.80;;
21825;SDS011;11075;47.944;11.776;2022-09-17T14:51:55;2.63;;;0.60;;
21825;SDS011;11075;47.944;11.776;2022-09-17T14:54:26;2.67;;;0.70;;
21825;SDS011;11075;47.944;11.776;2022-09-17T14:59:54;2.50;;;1.00;;
21825;SDS011;11075;47.944;11.776;2022-09-17T15:04:58;1.90;;;0.80;;
21825;SDS011;11075;47.944;11.776;2022-09-17T15:07:26;1.97;;;0.70;;
21825;SDS011;11075;47.944;11.776;2022-09-17T15:10:04;1.67;;;0.70;;
21825;SDS011;11075;47.944;11.776;2022-09-17T15:12:32;2.67;;;0.60;;
21825;SDS011;11075;47.944;11.776;2022-09-17T15:14:58;1.60;;;0.77;;
21825;SDS011;11075;47.944;11.776;2022-09-17T15:17:25;1.20;;;0.60;;
21825;SDS011;11075;47.944;11.776;2022-09-17T15:19:52;1.10;;;0.50;;
21825;SDS011;11075;47.944;11.776;2022-09-17T15:22:27;2.73;;;0.97;;
21825;SDS011;11075;47.944;11.776;2022-09-17T15:24:59;1.33;;;0.60;;
21825;SDS011;11075;47.944;11.776;2022-09-17T15:27:34;1.10;;;0.60;;
21825;SDS011;11075;47.944;11.776;2022-09-17T15:32:38;1.47;;;0.70;;
21825;SDS011;11075;47.944;11.776;2022-09-17T15:37:42;2.53;;;0.60;;
21825;SDS011;11075;47.944;11.776;2022-09-17T15:40:33;1.00;;;0.67;;
21825;SDS011;11075;47.944;11.776;2022-09-17T15:45:42;1.27;;;0.57;;
21825;SDS011;11075;47.944;11.776;2022-09-17T15:50:59;1.03;;;0.60;;
21825;SDS011;11075;47.944;11.776;2022-09-17T15:53:28;1.90;;;0.83;;
21825;SDS011;11075;47.944;11.776;2022-09-17T16:08:45;1.80;;;0.53;;
21825;SDS011;11075;47.944;11.776;2022-09-17T16:11:15;3.03;;;0.60;;
21825;SDS011;11075;47.944;11.776;2022-09-17T16:13:44;0.73;;;0.40;;
21825;SDS011;11075;47.944;11.776;2022-09-17T16:16:13;0.77;;;0.60;;
21825;SDS011;11075;47.944;11.776;2022-09-17T16:18:42;2.17;;;0.77;;
21825;SDS011;11075;47.944;11.776;2022-09-17T16:21:09;0.90;;;0.70;;
21825;SDS011;11075;47.944;11.776;2022-09-17T16:23:37;1.30;;;0.70;;
21825;SDS011;11075;47.944;11.776;2022-09-17T16:26:04;3.87;;;1.00;;
21825;SDS011;11075;47.944;11.776;2022-09-17T16:28:32;3.23;;;1.27;;
21825;SDS011;11075;47.944;11.776;2022-09-17T16:30:59;3.30;;;1.23;;
21825;SDS011;11075;47.944;11.776;2022-09-17T16:33:26;2.87;;;1.00;;
21825;SDS011;11075;47.944;11.776;2022-09-17T16:35:56;3.47;;;1.00;;
21825;SDS011;11075;47.944;11.776;2022-09-17T16:38:24;1.33;;;0.73;;
21825;SDS011;11075;47.944;11.776;2022-09-17T16:40:51;4.90;;;1.37;;
21825;SDS011;11075;47.944;11.776;2022-09-17T16:43:18;1.93;;;0.90;;
21825;SDS011;11075;47.944;11.776;2022-09-17T16:46:01;1.67;;;0.83;;
21825;SDS011;11075;47.944;11.776;2022-09-17T16:48:31;1.10;;;0.67;;
21825;SDS011;11075;47.944;11.776;2022-09-17T16:50:59;7.80;;;0.90;;
21825;SDS011;11075;47.944;11.776;2022-09-17T16:53:29;1.10;;;0.63;;
21825;SDS011;11075;47.944;11.776;2022-09-17T16:55:56;2.30;;;0.80;;
21825;SDS011;11075;47.944;11.776;2022-09-17T16:58:23;3.23;;;0.97;;
21825;SDS011;11075;47.944;11.776;2022-09-17T17:00:50;0.70;;;0.70;;
21825;SDS011;11075;47.944;11.776;2022-09-17T17:03:17;1.83;;;0.60;;
21825;SDS011;11075;47.944;11.776;2022-09-17T17:05:44;1.10;;;0.87;;
21825;SDS011;11075;47.944;11.776;2022-09-17T17:08:10;1.30;;;0.83;;
21825;SDS011;11075;47.944;11.776;2022-09-17T17:10:37;1.17;;;1.00;;
21825;SDS011;11075;47.944;11.776;2022-09-17T17:13:05;2.77;;;0.80;;
21825;SDS011;11075;47.944;11.776;2022-09-17T17:15:31;1.40;;;0.80;;
21825;SDS011;11075;47.944;11.776;2022-09-17T17:17:58;1.47;;;0.70;;
21825;SDS011;11075;47.944;11.776;2022-09-17T17:20:25;2.27;;;1.20;;
21825;SDS011;11075;47.944;11.776;2022-09-17T17:22:52;3.10;;;1.17;;
21825;SDS011;11075;47.944;11.776;2022-09-17T17:25:20;1.10;;;1.00;;
21825;SDS011;11075;47.944;11.776;2022-09-17T17:27:49;1.30;;;0.90;;
21825;SDS011;11075;47.944;11.776;2022-09-17T17:30:16;2.00;;;0.87;;
21825;SDS011;11075;47.944;11.776;2022-09-17T17:32:44;1.10;;;0.90;;
21825;SDS011;11075;47.944;11.776;2022-09-17T17:35:15;4.57;;;1.17;;
21825;SDS011;11075;47.944;11.776;2022-09-17T17:37:42;1.40;;;0.80;;
21825;SDS011;11075;47.944;11.776;2022-09-17T17:40:10;2.10;;;1.00;;
21825;SDS011;11075;47.944;11.776;2022-09-17T17:42:37;2.73;;;0.97;;
21825;SDS011;11075;47.944;11.776;2022-09-17T17:45:07;0.70;;;0.70;;
21825;SDS011;11075;47.944;11.776;2022-09-17T17:47:35;1.70;;;0.90;;
21825;SDS011;11075;47.944;11.776;2022-09-17T17:50:02;2.30;;;0.87;;
21825;SDS011;11075;47.944;11.776;2022-09-17T17:52:29;0.70;;;0.50;;
21825;SDS011;11075;47.944;11.776;2022-09-17T17:54:57;2.20;;;0.70;;
21825;SDS011;11075;47.944;11.776;2022-09-17T17:57:23;1.33;;;0.70;;
21825;SDS011;11075;47.944;11.776;2022-09-17T17:59:50;1.13;;;0.60;;
21825;SDS011;11075;47.944;11.776;2022-09-17T18:02:17;0.70;;;0.60;;
21825;SDS011;11075;47.944;11.776;2022-09-17T18:04:44;1.57;;;0.80;;
21825;SDS011;11075;47.944;11.776;2022-09-17T18:07:11;2.23;;;1.00;;
21825;SDS011;11075;47.944;11.776;2022-09-17T18:09:37;2.20;;;0.63;;
21825;SDS011;11075;47.944;11.776;2022-09-17T18:12:04;1.13;;;0.97;;
21825;SDS011;11075;47.944;11.776;2022-09-17T18:14:32;0.87;;;0.63;;
21825;SDS011;11075;47.944;11.776;2022-09-17T18:16:58;0.67;;;0.67;;
21825;SDS011;11075;47.944;11.776;2022-09-17T18:19:25;1.20;;;0.40;;
21825;SDS011;11075;47.944;11.776;2022-09-17T18:21:53;0.60;;;0.50;;
21825;SDS011;11075;47.944;11.776;2022-09-17T18:24:19;3.03;;;0.53;;
21825;SDS011;11075;47.944;11.776;2022-09-17T18:26:46;0.57;;;0.57;;
21825;SDS011;11075;47.944;11.776;2022-09-17T18:29:13;1.43;;;0.70;;
21825;SDS011;11075;47.944;11.776;2022-09-17T18:31:40;0.50;;;0.40;;
21825;SDS011;11075;47.944;11.776;2022-09-17T18:34:11;2.13;;;0.50;;
21825;SDS011;11075;47.944;11.776;2022-09-17T18:36:40;1.00;;;0.60;;
21825;SDS011;11075;47.944;11.776;2022-09-17T18:39:09;2.03;;;0.53;;
21825;SDS011;11075;47.944;11.776;2022-09-17T18:41:58;1.07;;;0.60;;
21825;SDS011;11075;47.944;11.776;2022-09-17T18:44:25;0.80;;;0.50;;
21825;SDS011;11075;47.944;11.776;2022-09-17T18:46:52;0.90;;;0.50;;
21825;SDS011;11075;47.944;11.776;2022-09-17T18:49:19;1.43;;;0.60;;
21825;SDS011;11075;47.944;11.776;2022-09-17T18:51:46;1.27;;;0.50;;
21825;SDS011;11075;47.944;11.776;2022-09-17T18:54:13;0.80;;;0.60;;
21825;SDS011;11075;47.944;11.776;2022-09-17T18:56:40;0.40;;;0.40;;
21825;SDS011;11075;47.944;11.776;2022-09-17T18:59:07;1.07;;;0.40;;